sensor_id;sensor_type;location;lat;lon;timestamp;pressure;altitude;pressure_sealevel;temperature;humidity
9822;BME280;4950;46.042;14.472;2022-07-29T00:01:19;97943.28;;;22.38;68.03
9822;BME280;4950;46.042;14.472;2022-07-29T00:03:47;97939.84;;;22.37;68.16
9822;BME280;4950;46.042;14.472;2022-07-29T00:06:14;97937.13;;;22.32;68.50
9822;BME280;4950;46.042;14.472;2022-07-29T00:08:41;97944.25;;;22.26;68.33
9822;BME280;4950;46.042;14.472;2022-07-29T00:11:07;97934.22;;;22.28;68.14
9822;BME280;4950;46.042;14.472;2022-07-29T00:13:34;97941.88;;;22.30;68.38
9822;BME280;4950;46.042;14.472;2022-07-29T00:16:01;97938.97;;;22.26;68.62
9822;BME280;4950;46.042;14.472;2022-07-29T00:18:27;97946.63;;;22.28;68.96
9822;BME280;4950;46.042;14.472;2022-07-29T00:20:55;97951.84;;;22.23;68.87
9822;BME280;4950;46.042;14.472;2022-07-29T00:23:22;97941.19;;;22.18;68.55
9822;BME280;4950;46.042;14.472;2022-07-29T00:25:49;97936.34;;;22.09;69.20
9822;BME280;4950;46.042;14.472;2022-07-29T00:28:16;97947.97;;;22.08;68.98
9822;BME280;4950;46.042;14.472;2022-07-29T00:30:43;97946.44;;;22.13;69.26
9822;BME280;4950;46.042;14.472;2022-07-29T00:33:09;97930.00;;;22.11;68.96
9822;BME280;4950;46.042;14.472;2022-07-29T00:35:36;97940.84;;;22.09;69.09
9822;BME280;4950;46.042;14.472;2022-07-29T00:38:14;97934.47;;;22.05;69.61
9822;BME280;4950;46.042;14.472;2022-07-29T00:40:42;97940.22;;;22.02;69.33
9822;BME280;4950;46.042;14.472;2022-07-29T00:43:10;97934.94;;;22.02;69.12
9822;BME280;4950;46.042;14.472;2022-07-29T00:45:37;97939.00;;;21.87;69.67
9822;BME280;4950;46.042;14.472;2022-07-29T00:48:04;97935.50;;;21.82;69.90
9822;BME280;4950;46.042;14.472;2022-07-29T00:50:32;97926.19;;;21.79;70.44
9822;BME280;4950;46.042;14.472;2022-07-29T00:52:59;97927.50;;;21.77;70.17
9822;BME280;4950;46.042;14.472;2022-07-29T00:55:27;97923.19;;;21.71;70.47
9822;BME280;4950;46.042;14.472;2022-07-29T00:57:55;97921.84;;;21.68;70.88
9822;BME280;4950;46.042;14.472;2022-07-29T01:00:24;97920.25;;;21.67;70.86
9822;BME280;4950;46.042;14.472;2022-07-29T01:02:51;97923.19;;;21.71;70.82
9822;BME280;4950;46.042;14.472;2022-07-29T01:05:19;97921.91;;;21.73;70.81
9822;BME280;4950;46.042;14.472;2022-07-29T01:07:47;97926.19;;;21.79;70.62
9822;BME280;4950;46.042;14.472;2022-07-29T01:10:15;97919.31;;;21.78;70.42
9822;BME280;4950;46.042;14.472;2022-07-29T01:12:46;97912.16;;;21.74;70.89
9822;BME280;4950;46.042;14.472;2022-07-29T01:15:13;97916.06;;;21.71;71.00
9822;BME280;4950;46.042;14.472;2022-07-29T01:17:44;97914.41;;;21.65;71.00
9822;BME280;4950;46.042;14.472;2022-07-29T01:20:16;97909.66;;;21.67;71.15
9822;BME280;4950;46.042;14.472;2022-07-29T01:22:59;97912.81;;;21.64;71.26
9822;BME280;4950;46.042;14.472;2022-07-29T01:25:46;97904.56;;;21.60;71.08
9822;BME280;4950;46.042;14.472;2022-07-29T01:28:37;97899.44;;;21.54;71.55
9822;BME280;4950;46.042;14.472;2022-07-29T01:31:06;97901.53;;;21.52;71.71
9822;BME280;4950;46.042;14.472;2022-07-29T01:33:38;97898.03;;;21.46;71.89
9822;BME280;4950;46.042;14.472;2022-07-29T01:36:21;97896.09;;;21.41;72.36
9822;BME280;4950;46.042;14.472;2022-07-29T01:38:54;97891.59;;;21.42;72.10
9822;BME280;4950;46.042;14.472;2022-07-29T01:41:25;97898.97;;;21.40;71.86
9822;BME280;4950;46.042;14.472;2022-07-29T01:43:57;97895.00;;;21.37;71.95
9822;BME280;4950;46.042;14.472;2022-07-29T01:46:29;97883.00;;;21.29;72.53
9822;BME280;4950;46.042;14.472;2022-07-29T01:49:00;97888.53;;;21.28;72.48
9822;BME280;4950;46.042;14.472;2022-07-29T01:51:31;97886.38;;;21.25;72.59
9822;BME280;4950;46.042;14.472;2022-07-29T01:54:04;97880.38;;;21.13;72.92
9822;BME280;4950;46.042;14.472;2022-07-29T01:56:35;97877.03;;;21.00;73.39
9822;BME280;4950;46.042;14.472;2022-07-29T01:59:05;97869.84;;;20.96;73.55
9822;BME280;4950;46.042;14.472;2022-07-29T02:01:34;97867.91;;;20.91;73.48
9822;BME280;4950;46.042;14.472;2022-07-29T02:04:03;97876.00;;;20.84;74.21
9822;BME280;4950;46.042;14.472;2022-07-29T02:06:32;97883.22;;;20.72;74.47
9822;BME280;4950;46.042;14.472;2022-07-29T02:09:00;97886.97;;;20.59;75.22
9822;BME280;4950;46.042;14.472;2022-07-29T02:11:29;97890.91;;;20.45;75.77
9822;BME280;4950;46.042;14.472;2022-07-29T02:13:57;97891.66;;;20.28;76.84
9822;BME280;4950;46.042;14.472;2022-07-29T02:16:27;97897.94;;;20.10;77.55
9822;BME280;4950;46.042;14.472;2022-07-29T02:18:55;97884.94;;;20.21;77.05
9822;BME280;4950;46.042;14.472;2022-07-29T02:21:24;97876.19;;;20.32;76.83
9822;BME280;4950;46.042;14.472;2022-07-29T02:23:54;97875.63;;;20.30;76.62
9822;BME280;4950;46.042;14.472;2022-07-29T02:26:24;97878.09;;;20.37;76.28
9822;BME280;4950;46.042;14.472;2022-07-29T02:28:54;97886.00;;;20.37;76.15
9822;BME280;4950;46.042;14.472;2022-07-29T02:31:23;97880.03;;;20.41;75.90
9822;BME280;4950;46.042;14.472;2022-07-29T02:33:53;97873.00;;;20.47;75.76
9822;BME280;4950;46.042;14.472;2022-07-29T02:36:22;97875.88;;;20.45;75.69
9822;BME280;4950;46.042;14.472;2022-07-29T02:38:50;97873.56;;;20.49;75.63
9822;BME280;4950;46.042;14.472;2022-07-29T02:41:20;97876.69;;;20.46;75.78
9822;BME280;4950;46.042;14.472;2022-07-29T02:43:53;97871.97;;;20.48;75.65
9822;BME280;4950;46.042;14.472;2022-07-29T02:46:27;97877.00;;;20.49;75.49
9822;BME280;4950;46.042;14.472;2022-07-29T02:48:59;97880.09;;;20.46;75.20
9822;BME280;4950;46.042;14.472;2022-07-29T02:51:30;97870.13;;;20.48;75.15
9822;BME280;4950;46.042;14.472;2022-07-29T02:54:01;97872.69;;;20.43;75.14
9822;BME280;4950;46.042;14.472;2022-07-29T02:56:33;97869.94;;;20.38;75.27
9822;BME280;4950;46.042;14.472;2022-07-29T02:59:04;97869.38;;;20.36;74.96
9822;BME280;4950;46.042;14.472;2022-07-29T03:01:34;97869.88;;;20.33;75.13
9822;BME280;4950;46.042;14.472;2022-07-29T03:04:04;97873.78;;;20.30;75.25
9822;BME280;4950;46.042;14.472;2022-07-29T03:06:32;97872.19;;;20.29;75.27
9822;BME280;4950;46.042;14.472;2022-07-29T03:09:00;97874.94;;;20.23;75.31
9822;BME280;4950;46.042;14.472;2022-07-29T03:11:28;97874.38;;;20.21;75.26
9822;BME280;4950;46.042;14.472;2022-07-29T03:13:55;97878.66;;;20.22;75.41
9822;BME280;4950;46.042;14.472;2022-07-29T03:16:23;97877.53;;;20.18;75.35
9822;BME280;4950;46.042;14.472;2022-07-29T03:18:50;97878.53;;;20.17;75.37
9822;BME280;4950;46.042;14.472;2022-07-29T03:21:18;97873.19;;;20.11;75.57
9822;BME280;4950;46.042;14.472;2022-07-29T03:23:45;97876.63;;;20.12;75.45
9822;BME280;4950;46.042;14.472;2022-07-29T03:26:12;97872.59;;;20.09;75.53
9822;BME280;4950;46.042;14.472;2022-07-29T03:28:38;97884.75;;;20.10;75.54
9822;BME280;4950;46.042;14.472;2022-07-29T03:31:05;97881.00;;;20.06;76.11
9822;BME280;4950;46.042;14.472;2022-07-29T03:33:32;97877.88;;;20.09;75.68
9822;BME280;4950;46.042;14.472;2022-07-29T03:35:58;97875.81;;;20.11;75.60
9822;BME280;4950;46.042;14.472;2022-07-29T03:38:30;97882.34;;;20.09;75.44
9822;BME280;4950;46.042;14.472;2022-07-29T03:41:01;97885.22;;;20.07;75.48
9822;BME280;4950;46.042;14.472;2022-07-29T03:43:30;97892.84;;;19.92;75.77
9822;BME280;4950;46.042;14.472;2022-07-29T03:46:00;97892.44;;;19.71;76.75
9822;BME280;4950;46.042;14.472;2022-07-29T03:48:30;97889.91;;;19.77;76.44
9822;BME280;4950;46.042;14.472;2022-07-29T03:50:59;97892.56;;;19.77;76.44
9822;BME280;4950;46.042;14.472;2022-07-29T03:53:25;97889.66;;;19.78;76.55
9822;BME280;4950;46.042;14.472;2022-07-29T03:55:58;97889.34;;;19.75;76.64
9822;BME280;4950;46.042;14.472;2022-07-29T03:58:27;97885.31;;;19.72;76.37
9822;BME280;4950;46.042;14.472;2022-07-29T04:00:54;97884.38;;;19.66;76.70
9822;BME280;4950;46.042;14.472;2022-07-29T04:03:21;97894.72;;;19.56;77.31
9822;BME280;4950;46.042;14.472;2022-07-29T04:05:58;97892.44;;;19.48;77.71
9822;BME280;4950;46.042;14.472;2022-07-29T04:08:25;97891.09;;;19.45;77.80
9822;BME280;4950;46.042;14.472;2022-07-29T04:10:51;97886.28;;;19.42;78.11
9822;BME280;4950;46.042;14.472;2022-07-29T04:13:20;97892.56;;;19.29;78.55
9822;BME280;4950;46.042;14.472;2022-07-29T04:15:46;97899.22;;;19.20;78.95
9822;BME280;4950;46.042;14.472;2022-07-29T04:18:13;97908.94;;;19.08;79.67
9822;BME280;4950;46.042;14.472;2022-07-29T04:20:40;97912.38;;;19.08;79.99
9822;BME280;4950;46.042;14.472;2022-07-29T04:23:06;97908.03;;;19.14;79.86
9822;BME280;4950;46.042;14.472;2022-07-29T04:25:36;97910.69;;;19.14;79.83
9822;BME280;4950;46.042;14.472;2022-07-29T04:28:02;97909.75;;;19.08;80.35
9822;BME280;4950;46.042;14.472;2022-07-29T04:30:31;97906.44;;;19.13;79.76
9822;BME280;4950;46.042;14.472;2022-07-29T04:32:59;97905.28;;;19.09;80.36
9822;BME280;4950;46.042;14.472;2022-07-29T04:35:26;97897.97;;;19.11;80.22
9822;BME280;4950;46.042;14.472;2022-07-29T04:37:53;97903.66;;;19.08;80.73
9822;BME280;4950;46.042;14.472;2022-07-29T04:40:20;97893.28;;;19.13;80.91
9822;BME280;4950;46.042;14.472;2022-07-29T04:42:46;97892.47;;;19.24;80.74
9822;BME280;4950;46.042;14.472;2022-07-29T04:45:13;97887.91;;;19.31;80.30
9822;BME280;4950;46.042;14.472;2022-07-29T04:47:41;97893.72;;;19.45;79.85
9822;BME280;4950;46.042;14.472;2022-07-29T04:50:09;97891.88;;;19.46;79.84
9822;BME280;4950;46.042;14.472;2022-07-29T04:52:36;97895.91;;;19.37;80.35
9822;BME280;4950;46.042;14.472;2022-07-29T04:55:03;97894.75;;;19.32;80.74
9822;BME280;4950;46.042;14.472;2022-07-29T04:57:30;97891.56;;;19.30;80.72
9822;BME280;4950;46.042;14.472;2022-07-29T04:59:57;97880.44;;;19.28;81.17
9822;BME280;4950;46.042;14.472;2022-07-29T05:02:23;97875.06;;;19.35;80.99
9822;BME280;4950;46.042;14.472;2022-07-29T05:04:51;97863.94;;;19.45;81.20
9822;BME280;4950;46.042;14.472;2022-07-29T05:07:18;97866.81;;;19.55;80.97
9822;BME280;4950;46.042;14.472;2022-07-29T05:09:45;97872.72;;;19.62;80.93
9822;BME280;4950;46.042;14.472;2022-07-29T05:12:11;97856.13;;;19.62;81.04
9822;BME280;4950;46.042;14.472;2022-07-29T05:14:38;97829.66;;;19.68;81.13
9822;BME280;4950;46.042;14.472;2022-07-29T05:17:04;97842.94;;;19.73;80.88
9822;BME280;4950;46.042;14.472;2022-07-29T05:19:31;97865.88;;;19.73;80.94
9822;BME280;4950;46.042;14.472;2022-07-29T05:21:59;97878.56;;;19.76;80.70
9822;BME280;4950;46.042;14.472;2022-07-29T05:24:26;97880.84;;;19.84;80.48
9822;BME280;4950;46.042;14.472;2022-07-29T05:26:52;97879.13;;;19.78;80.31
9822;BME280;4950;46.042;14.472;2022-07-29T05:29:19;97882.25;;;19.75;80.37
9822;BME280;4950;46.042;14.472;2022-07-29T05:31:46;97881.44;;;19.75;80.39
9822;BME280;4950;46.042;14.472;2022-07-29T05:34:12;97891.72;;;19.76;80.41
9822;BME280;4950;46.042;14.472;2022-07-29T05:36:39;97903.31;;;19.75;80.31
9822;BME280;4950;46.042;14.472;2022-07-29T05:39:07;97905.38;;;19.73;80.68
9822;BME280;4950;46.042;14.472;2022-07-29T05:41:33;97907.78;;;19.75;80.75
9822;BME280;4950;46.042;14.472;2022-07-29T05:44:00;97901.81;;;19.79;80.92
9822;BME280;4950;46.042;14.472;2022-07-29T05:46:27;97897.69;;;19.83;80.86
9822;BME280;4950;46.042;14.472;2022-07-29T05:48:54;97900.09;;;19.85;80.65
9822;BME280;4950;46.042;14.472;2022-07-29T05:51:20;97905.44;;;19.90;80.55
9822;BME280;4950;46.042;14.472;2022-07-29T05:53:47;97902.91;;;19.95;80.45
9822;BME280;4950;46.042;14.472;2022-07-29T05:56:15;97899.50;;;19.95;80.54
9822;BME280;4950;46.042;14.472;2022-07-29T05:58:41;97909.09;;;20.01;80.47
9822;BME280;4950;46.042;14.472;2022-07-29T06:01:08;97913.06;;;20.03;80.23
9822;BME280;4950;46.042;14.472;2022-07-29T06:03:35;97909.09;;;20.01;80.28
9822;BME280;4950;46.042;14.472;2022-07-29T06:06:03;97913.19;;;20.08;80.21
9822;BME280;4950;46.042;14.472;2022-07-29T06:08:29;97913.41;;;20.07;80.22
9822;BME280;4950;46.042;14.472;2022-07-29T06:10:56;97918.91;;;20.05;80.32
9822;BME280;4950;46.042;14.472;2022-07-29T06:13:24;97912.41;;;20.08;80.38
9822;BME280;4950;46.042;14.472;2022-07-29T06:15:51;97917.66;;;20.08;80.58
9822;BME280;4950;46.042;14.472;2022-07-29T06:18:17;97916.72;;;20.14;80.34
9822;BME280;4950;46.042;14.472;2022-07-29T06:20:45;97910.16;;;20.17;80.04
9822;BME280;4950;46.042;14.472;2022-07-29T06:23:12;97916.56;;;20.21;80.04
9822;BME280;4950;46.042;14.472;2022-07-29T06:25:39;97908.75;;;20.26;79.66
9822;BME280;4950;46.042;14.472;2022-07-29T06:28:06;97916.78;;;20.31;79.23
9822;BME280;4950;46.042;14.472;2022-07-29T06:30:34;97906.88;;;20.38;78.91
9822;BME280;4950;46.042;14.472;2022-07-29T06:33:01;97913.84;;;20.44;78.53
9822;BME280;4950;46.042;14.472;2022-07-29T06:35:28;97920.56;;;20.52;78.18
9822;BME280;4950;46.042;14.472;2022-07-29T06:37:54;97923.28;;;20.57;77.71
9822;BME280;4950;46.042;14.472;2022-07-29T06:40:21;97925.25;;;20.62;77.55
9822;BME280;4950;46.042;14.472;2022-07-29T06:43:05;97930.63;;;20.67;77.19
9822;BME280;4950;46.042;14.472;2022-07-29T06:45:35;97928.31;;;20.70;76.97
9822;BME280;4950;46.042;14.472;2022-07-29T06:48:01;97932.63;;;20.77;77.09
9822;BME280;4950;46.042;14.472;2022-07-29T06:50:28;97934.88;;;20.85;76.63
9822;BME280;4950;46.042;14.472;2022-07-29T06:52:55;97936.22;;;20.87;75.15
9822;BME280;4950;46.042;14.472;2022-07-29T06:55:21;97928.41;;;20.93;75.35
9822;BME280;4950;46.042;14.472;2022-07-29T06:57:48;97930.06;;;20.99;75.37
9822;BME280;4950;46.042;14.472;2022-07-29T07:00:15;97930.63;;;21.01;74.91
9822;BME280;4950;46.042;14.472;2022-07-29T07:02:43;97932.31;;;21.07;74.99
9822;BME280;4950;46.042;14.472;2022-07-29T07:05:09;97929.84;;;21.17;74.57
9822;BME280;4950;46.042;14.472;2022-07-29T07:07:36;97931.28;;;21.25;74.48
9822;BME280;4950;46.042;14.472;2022-07-29T07:10:03;97921.56;;;21.30;74.70
9822;BME280;4950;46.042;14.472;2022-07-29T07:12:30;97936.47;;;21.37;74.32
9822;BME280;4950;46.042;14.472;2022-07-29T07:14:57;97928.03;;;21.40;74.05
9822;BME280;4950;46.042;14.472;2022-07-29T07:17:23;97927.41;;;21.49;73.79
9822;BME280;4950;46.042;14.472;2022-07-29T07:19:51;97928.28;;;21.55;72.98
9822;BME280;4950;46.042;14.472;2022-07-29T07:22:18;97924.41;;;21.63;72.81
9822;BME280;4950;46.042;14.472;2022-07-29T07:24:45;97923.75;;;21.73;72.57
9822;BME280;4950;46.042;14.472;2022-07-29T07:27:11;97922.03;;;21.83;72.41
9822;BME280;4950;46.042;14.472;2022-07-29T07:29:38;97916.63;;;21.95;72.34
9822;BME280;4950;46.042;14.472;2022-07-29T07:32:06;97921.78;;;22.07;71.39
9822;BME280;4950;46.042;14.472;2022-07-29T07:34:33;97917.63;;;22.16;71.34
9822;BME280;4950;46.042;14.472;2022-07-29T07:37:01;97921.69;;;22.24;71.06
9822;BME280;4950;46.042;14.472;2022-07-29T07:39:28;97912.78;;;22.30;70.37
9822;BME280;4950;46.042;14.472;2022-07-29T07:41:54;97920.78;;;22.35;70.76
9822;BME280;4950;46.042;14.472;2022-07-29T07:44:21;97918.75;;;22.42;70.82
9822;BME280;4950;46.042;14.472;2022-07-29T07:46:47;97924.38;;;22.51;70.13
9822;BME280;4950;46.042;14.472;2022-07-29T07:49:14;97923.13;;;22.59;68.69
9822;BME280;4950;46.042;14.472;2022-07-29T07:51:41;97919.75;;;22.63;68.03
9822;BME280;4950;46.042;14.472;2022-07-29T07:54:09;97922.47;;;22.74;68.10
9822;BME280;4950;46.042;14.472;2022-07-29T07:56:35;97916.94;;;22.80;67.69
9822;BME280;4950;46.042;14.472;2022-07-29T07:59:02;97918.34;;;22.88;67.53
9822;BME280;4950;46.042;14.472;2022-07-29T08:01:29;97916.03;;;22.97;65.08
9822;BME280;4950;46.042;14.472;2022-07-29T08:03:55;97927.22;;;23.04;64.87
9822;BME280;4950;46.042;14.472;2022-07-29T08:06:22;97922.25;;;23.13;64.25
9822;BME280;4950;46.042;14.472;2022-07-29T08:08:50;97923.13;;;23.23;63.79
9822;BME280;4950;46.042;14.472;2022-07-29T08:11:19;97923.19;;;23.34;62.51
9822;BME280;4950;46.042;14.472;2022-07-29T08:13:46;97925.38;;;23.42;62.48
9822;BME280;4950;46.042;14.472;2022-07-29T08:16:13;97923.81;;;23.51;62.03
9822;BME280;4950;46.042;14.472;2022-07-29T08:18:41;97918.59;;;23.61;61.97
9822;BME280;4950;46.042;14.472;2022-07-29T08:21:08;97915.19;;;23.76;60.23
9822;BME280;4950;46.042;14.472;2022-07-29T08:23:34;97912.34;;;23.88;59.78
9822;BME280;4950;46.042;14.472;2022-07-29T08:26:04;97915.56;;;23.95;60.15
9822;BME280;4950;46.042;14.472;2022-07-29T08:28:32;97906.31;;;24.08;60.34
9822;BME280;4950;46.042;14.472;2022-07-29T08:30:58;97906.09;;;24.20;59.57
9822;BME280;4950;46.042;14.472;2022-07-29T08:33:25;97908.47;;;24.27;58.68
9822;BME280;4950;46.042;14.472;2022-07-29T08:35:51;97904.78;;;24.38;58.18
9822;BME280;4950;46.042;14.472;2022-07-29T08:38:18;97903.50;;;24.51;58.12
9822;BME280;4950;46.042;14.472;2022-07-29T08:40:45;97897.66;;;24.64;57.67
9822;BME280;4950;46.042;14.472;2022-07-29T08:43:12;97899.78;;;24.72;56.79
9822;BME280;4950;46.042;14.472;2022-07-29T08:45:44;97896.63;;;24.96;55.64
9822;BME280;4950;46.042;14.472;2022-07-29T08:48:11;97899.00;;;24.97;55.28
9822;BME280;4950;46.042;14.472;2022-07-29T08:50:39;97896.88;;;25.05;55.37
9822;BME280;4950;46.042;14.472;2022-07-29T08:53:08;97893.13;;;25.11;56.53
9822;BME280;4950;46.042;14.472;2022-07-29T08:55:38;97894.19;;;25.25;56.11
9822;BME280;4950;46.042;14.472;2022-07-29T08:58:06;97890.97;;;25.38;54.68
9822;BME280;4950;46.042;14.472;2022-07-29T09:00:34;97894.13;;;25.51;54.08
9822;BME280;4950;46.042;14.472;2022-07-29T09:03:04;97890.34;;;25.67;54.38
9822;BME280;4950;46.042;14.472;2022-07-29T09:05:32;97888.72;;;25.76;54.25
9822;BME280;4950;46.042;14.472;2022-07-29T09:07:59;97891.88;;;25.84;54.08
9822;BME280;4950;46.042;14.472;2022-07-29T09:10:26;97888.63;;;25.97;53.59
9822;BME280;4950;46.042;14.472;2022-07-29T09:12:54;97897.38;;;26.08;52.99
9822;BME280;4950;46.042;14.472;2022-07-29T09:15:21;97895.19;;;26.15;52.12
9822;BME280;4950;46.042;14.472;2022-07-29T09:17:49;97892.44;;;26.30;51.83
9822;BME280;4950;46.042;14.472;2022-07-29T09:20:18;97888.03;;;26.50;49.96
9822;BME280;4950;46.042;14.472;2022-07-29T09:22:46;97888.75;;;26.66;49.70
9822;BME280;4950;46.042;14.472;2022-07-29T09:25:15;97886.97;;;26.85;48.84
9822;BME280;4950;46.042;14.472;2022-07-29T09:28:05;97881.97;;;26.84;49.96
9822;BME280;4950;46.042;14.472;2022-07-29T09:30:32;97884.28;;;26.90;49.12
9822;BME280;4950;46.042;14.472;2022-07-29T09:33:00;97889.34;;;26.92;47.06
9822;BME280;4950;46.042;14.472;2022-07-29T09:35:30;97886.41;;;26.93;45.86
9822;BME280;4950;46.042;14.472;2022-07-29T09:37:57;97880.25;;;26.93;46.14
9822;BME280;4950;46.042;14.472;2022-07-29T09:40:25;97875.91;;;27.02;47.28
9822;BME280;4950;46.042;14.472;2022-07-29T09:42:52;97877.06;;;27.20;47.93
9822;BME280;4950;46.042;14.472;2022-07-29T09:45:29;97867.06;;;27.36;47.18
9822;BME280;4950;46.042;14.472;2022-07-29T09:47:56;97863.84;;;27.39;47.64
9822;BME280;4950;46.042;14.472;2022-07-29T09:50:37;97860.09;;;27.40;46.78
9822;BME280;4950;46.042;14.472;2022-07-29T09:53:03;97858.59;;;27.53;47.08
9822;BME280;4950;46.042;14.472;2022-07-29T09:55:30;97857.19;;;27.61;46.99
9822;BME280;4950;46.042;14.472;2022-07-29T09:58:15;97857.53;;;27.73;46.72
9822;BME280;4950;46.042;14.472;2022-07-29T10:00:43;97857.44;;;27.83;45.73
9822;BME280;4950;46.042;14.472;2022-07-29T10:03:10;97851.38;;;27.96;45.69
9822;BME280;4950;46.042;14.472;2022-07-29T10:05:39;97858.03;;;27.99;46.10
9822;BME280;4950;46.042;14.472;2022-07-29T10:08:07;97852.94;;;28.03;46.90
9822;BME280;4950;46.042;14.472;2022-07-29T10:10:37;97848.22;;;28.13;47.72
9822;BME280;4950;46.042;14.472;2022-07-29T10:13:05;97848.78;;;28.29;45.61
9822;BME280;4950;46.042;14.472;2022-07-29T10:15:34;97848.28;;;28.27;45.98
9822;BME280;4950;46.042;14.472;2022-07-29T10:18:02;97850.28;;;28.35;45.12
9822;BME280;4950;46.042;14.472;2022-07-29T10:20:29;97853.88;;;28.45;46.73
9822;BME280;4950;46.042;14.472;2022-07-29T10:22:58;97840.47;;;28.50;44.99
9822;BME280;4950;46.042;14.472;2022-07-29T10:25:25;97843.13;;;28.50;44.88
9822;BME280;4950;46.042;14.472;2022-07-29T10:27:53;97839.31;;;28.56;44.96
9822;BME280;4950;46.042;14.472;2022-07-29T10:30:21;97841.31;;;28.64;44.58
9822;BME280;4950;46.042;14.472;2022-07-29T10:33:00;97838.78;;;28.73;45.05
9822;BME280;4950;46.042;14.472;2022-07-29T10:35:47;97837.31;;;28.81;45.13
9822;BME280;4950;46.042;14.472;2022-07-29T10:41:37;97827.63;;;28.99;44.83
9822;BME280;4950;46.042;14.472;2022-07-29T10:44:12;97823.97;;;29.08;44.97
9822;BME280;4950;46.042;14.472;2022-07-29T10:46:40;97820.81;;;29.20;44.20
9822;BME280;4950;46.042;14.472;2022-07-29T10:49:09;97814.47;;;29.30;42.27
9822;BME280;4950;46.042;14.472;2022-07-29T10:52:02;97812.09;;;29.42;41.12
9822;BME280;4950;46.042;14.472;2022-07-29T10:54:47;97808.50;;;29.47;41.65
9822;BME280;4950;46.042;14.472;2022-07-29T10:57:26;97806.72;;;29.56;41.68
9822;BME280;4950;46.042;14.472;2022-07-29T11:00:30;97802.22;;;29.65;41.83
9822;BME280;4950;46.042;14.472;2022-07-29T11:02:57;97805.00;;;29.74;41.92
9822;BME280;4950;46.042;14.472;2022-07-29T11:05:24;97809.34;;;29.84;41.10
9822;BME280;4950;46.042;14.472;2022-07-29T11:08:17;97803.34;;;30.01;40.87
9822;BME280;4950;46.042;14.472;2022-07-29T11:10:47;97810.78;;;30.26;40.23
9822;BME280;4950;46.042;14.472;2022-07-29T11:16:16;97799.91;;;30.45;39.10
9822;BME280;4950;46.042;14.472;2022-07-29T11:19:20;97793.56;;;30.41;39.53
9822;BME280;4950;46.042;14.472;2022-07-29T11:21:48;97796.44;;;30.45;39.91
9822;BME280;4950;46.042;14.472;2022-07-29T11:24:16;97786.53;;;30.54;39.26
9822;BME280;4950;46.042;14.472;2022-07-29T11:26:45;97787.50;;;30.58;37.83
9822;BME280;4950;46.042;14.472;2022-07-29T11:29:18;97782.13;;;30.58;38.09
9822;BME280;4950;46.042;14.472;2022-07-29T11:31:49;97778.06;;;30.61;38.80
9822;BME280;4950;46.042;14.472;2022-07-29T11:34:25;97780.31;;;30.67;38.80
9822;BME280;4950;46.042;14.472;2022-07-29T11:37:20;97769.75;;;30.71;38.19
9822;BME280;4950;46.042;14.472;2022-07-29T11:42:45;97771.59;;;30.62;37.70
9822;BME280;4950;46.042;14.472;2022-07-29T11:45:18;97774.47;;;30.65;37.88
9822;BME280;4950;46.042;14.472;2022-07-29T11:47:50;97765.34;;;30.75;37.09
9822;BME280;4950;46.042;14.472;2022-07-29T11:50:27;97762.38;;;30.77;37.92
9822;BME280;4950;46.042;14.472;2022-07-29T11:52:54;97758.75;;;30.81;38.00
9822;BME280;4950;46.042;14.472;2022-07-29T11:55:22;97750.19;;;31.02;37.06
9822;BME280;4950;46.042;14.472;2022-07-29T11:57:52;97750.16;;;30.93;37.03
9822;BME280;4950;46.042;14.472;2022-07-29T12:00:25;97744.34;;;31.00;37.60
9822;BME280;4950;46.042;14.472;2022-07-29T12:02:52;97744.66;;;30.98;37.22
9822;BME280;4950;46.042;14.472;2022-07-29T12:05:19;97746.56;;;31.06;39.15
9822;BME280;4950;46.042;14.472;2022-07-29T12:07:48;97741.38;;;31.19;38.13
9822;BME280;4950;46.042;14.472;2022-07-29T12:10:14;97747.25;;;31.29;38.36
9822;BME280;4950;46.042;14.472;2022-07-29T12:12:41;97742.50;;;31.44;36.96
9822;BME280;4950;46.042;14.472;2022-07-29T12:15:14;97736.88;;;31.45;37.17
9822;BME280;4950;46.042;14.472;2022-07-29T12:17:43;97738.28;;;31.52;37.84
9822;BME280;4950;46.042;14.472;2022-07-29T12:20:10;97735.31;;;31.71;36.90
9822;BME280;4950;46.042;14.472;2022-07-29T12:22:40;97733.88;;;31.64;36.45
9822;BME280;4950;46.042;14.472;2022-07-29T12:25:11;97732.00;;;31.56;36.75
9822;BME280;4950;46.042;14.472;2022-07-29T12:27:39;97721.09;;;31.53;36.78
9822;BME280;4950;46.042;14.472;2022-07-29T12:30:08;97727.56;;;31.69;37.10
9822;BME280;4950;46.042;14.472;2022-07-29T12:32:38;97728.19;;;31.83;36.78
9822;BME280;4950;46.042;14.472;2022-07-29T12:35:06;97726.00;;;32.03;35.40
9822;BME280;4950;46.042;14.472;2022-07-29T12:37:33;97727.22;;;31.97;36.23
9822;BME280;4950;46.042;14.472;2022-07-29T12:40:01;97722.66;;;31.97;36.38
9822;BME280;4950;46.042;14.472;2022-07-29T12:42:28;97725.81;;;31.99;36.23
9822;BME280;4950;46.042;14.472;2022-07-29T12:44:54;97720.28;;;31.96;36.36
9822;BME280;4950;46.042;14.472;2022-07-29T12:47:21;97718.88;;;31.90;35.63
9822;BME280;4950;46.042;14.472;2022-07-29T12:49:50;97714.91;;;31.96;35.26
9822;BME280;4950;46.042;14.472;2022-07-29T12:52:24;97720.13;;;32.01;36.16
9822;BME280;4950;46.042;14.472;2022-07-29T12:54:51;97713.97;;;32.09;35.88
9822;BME280;4950;46.042;14.472;2022-07-29T12:57:17;97705.88;;;32.18;35.66
9822;BME280;4950;46.042;14.472;2022-07-29T12:59:46;97706.44;;;32.32;35.97
9822;BME280;4950;46.042;14.472;2022-07-29T13:02:24;97708.75;;;32.04;35.74
9822;BME280;4950;46.042;14.472;2022-07-29T13:04:57;97698.00;;;31.95;36.12
9822;BME280;4950;46.042;14.472;2022-07-29T13:07:24;97694.03;;;32.19;35.67
9822;BME280;4950;46.042;14.472;2022-07-29T13:09:52;97689.53;;;32.32;35.51
9822;BME280;4950;46.042;14.472;2022-07-29T13:12:19;97692.38;;;32.44;34.81
9822;BME280;4950;46.042;14.472;2022-07-29T13:14:47;97688.56;;;32.45;35.34
9822;BME280;4950;46.042;14.472;2022-07-29T13:17:16;97687.25;;;32.51;35.44
9822;BME280;4950;46.042;14.472;2022-07-29T13:19:44;97680.59;;;32.57;35.53
9822;BME280;4950;46.042;14.472;2022-07-29T13:22:14;97681.41;;;32.49;34.93
9822;BME280;4950;46.042;14.472;2022-07-29T13:24:49;97678.63;;;32.37;35.24
9822;BME280;4950;46.042;14.472;2022-07-29T13:27:15;97671.50;;;32.41;35.40
9822;BME280;4950;46.042;14.472;2022-07-29T13:29:42;97673.06;;;32.42;34.90